sensor_id;sensor_type;location;lat;lon;timestamp;temperature;humidity
5164;DHT22;2601;50.224;10.126;2022-12-16T04:09:03;-4.60;99.90
5164;DHT22;2601;50.224;10.126;2022-12-16T04:11:28;-4.50;99.90
5164;DHT22;2601;50.224;10.126;2022-12-16T04:14:13;-4.60;99.90
5164;DHT22;2601;50.224;10.126;2022-12-16T04:16:57;-4.50;99.90
5164;DHT22;2601;50.224;10.126;2022-12-16T04:19:43;-4.40;99.90
5164;DHT22;2601;50.224;10.126;2022-12-16T04:22:39;-4.50;99.90
5164;DHT22;2601;50.224;10.126;2022-12-16T04:25:32;-4.50;99.90
5164;DHT22;2601;50.224;10.126;2022-12-16T04:28:00;-4.60;99.90
5164;DHT22;2601;50.224;10.126;2022-12-16T04:30:27;-4.60;99.90
5164;DHT22;2601;50.224;10.126;2022-12-16T04:33:10;-4.60;99.90
5164;DHT22;2601;50.224;10.126;2022-12-16T04:35:55;-4.60;99.90
5164;DHT22;2601;50.224;10.126;2022-12-16T04:38:39;-4.60;99.90
5164;DHT22;2601;50.224;10.126;2022-12-16T04:41:24;-4.60;99.90
5164;DHT22;2601;50.224;10.126;2022-12-16T04:44:08;-4.60;99.90
5164;DHT22;2601;50.224;10.126;2022-12-16T04:46:52;-4.50;99.90
5164;DHT22;2601;50.224;10.126;2022-12-16T04:49:36;-4.40;99.90
5164;DHT22;2601;50.224;10.126;2022-12-16T04:52:20;-4.10;99.90
5164;DHT22;2601;50.224;10.126;2022-12-16T04:55:06;-4.00;99.90
5164;DHT22;2601;50.224;10.126;2022-12-16T04:57:52;-3.70;99.40
5164;DHT22;2601;50.224;10.126;2022-12-16T05:00:36;-3.60;98.70
5164;DHT22;2601;50.224;10.126;2022-12-16T05:03:21;-3.40;98.50
5164;DHT22;2601;50.224;10.126;2022-12-16T05:06:05;-3.40;98.20
5164;DHT22;2601;50.224;10.126;2022-12-16T05:08:49;-3.30;98.10
5164;DHT22;2601;50.224;10.126;2022-12-16T05:11:34;-3.30;98.20
5164;DHT22;2601;50.224;10.126;2022-12-16T05:14:18;-3.30;98.60
5164;DHT22;2601;50.224;10.126;2022-12-16T05:17:02;-3.30;98.30
5164;DHT22;2601;50.224;10.126;2022-12-16T05:19:46;-3.20;98.40
5164;DHT22;2601;50.224;10.126;2022-12-16T05:22:31;-3.20;98.70
5164;DHT22;2601;50.224;10.126;2022-12-16T05:25:15;-3.20;98.80
5164;DHT22;2601;50.224;10.126;2022-12-16T05:28:00;-3.20;99.00
5164;DHT22;2601;50.224;10.126;2022-12-16T05:30:44;-3.30;99.00
5164;DHT22;2601;50.224;10.126;2022-12-16T05:33:28;-3.30;99.30
5164;DHT22;2601;50.224;10.126;2022-12-16T05:36:12;-3.50;99.70
5164;DHT22;2601;50.224;10.126;2022-12-16T05:38:57;-3.60;99.90
5164;DHT22;2601;50.224;10.126;2022-12-16T05:41:41;-3.60;99.90
5164;DHT22;2601;50.224;10.126;2022-12-16T05:44:27;-3.70;99.90
5164;DHT22;2601;50.224;10.126;2022-12-16T05:47:11;-3.80;99.90
5164;DHT22;2601;50.224;10.126;2022-12-16T05:49:55;-3.90;99.90
5164;DHT22;2601;50.224;10.126;2022-12-16T05:52:40;-4.10;99.90
5164;DHT22;2601;50.224;10.126;2022-12-16T05:55:24;-4.20;99.90
5164;DHT22;2601;50.224;10.126;2022-12-16T05:58:09;-4.20;99.90
5164;DHT22;2601;50.224;10.126;2022-12-16T06:00:53;-4.30;99.90
5164;DHT22;2601;50.224;10.126;2022-12-16T06:03:38;-4.40;99.90
5164;DHT22;2601;50.224;10.126;2022-12-16T06:06:22;-4.40;99.90
5164;DHT22;2601;50.224;10.126;2022-12-16T06:09:06;-4.60;99.90
5164;DHT22;2601;50.224;10.126;2022-12-16T06:11:51;-4.70;99.90
5164;DHT22;2601;50.224;10.126;2022-12-16T06:14:35;-4.70;99.90
5164;DHT22;2601;50.224;10.126;2022-12-16T06:17:20;-4.70;99.90
5164;DHT22;2601;50.224;10.126;2022-12-16T06:20:05;-4.70;99.90
5164;DHT22;2601;50.224;10.126;2022-12-16T06:22:53;-4.70;99.90
5164;DHT22;2601;50.224;10.126;2022-12-16T06:25:39;-4.80;99.90
5164;DHT22;2601;50.224;10.126;2022-12-16T06:28:24;-4.90;99.90
5164;DHT22;2601;50.224;10.126;2022-12-16T06:31:08;-5.00;99.90
5164;DHT22;2601;50.224;10.126;2022-12-16T06:33:53;-5.10;99.90
5164;DHT22;2601;50.224;10.126;2022-12-16T06:36:38;-5.10;99.90
5164;DHT22;2601;50.224;10.126;2022-12-16T15:35:02;-2.10;95.70
5164;DHT22;2601;50.224;10.126;2022-12-16T15:37:46;-2.20;96.30
5164;DHT22;2601;50.224;10.126;2022-12-16T15:40:39;-2.20;96.60
5164;DHT22;2601;50.224;10.126;2022-12-16T15:43:31;-2.20;97.30
5164;DHT22;2601;50.224;10.126;2022-12-16T15:46:17;-2.20;96.80
5164;DHT22;2601;50.224;10.126;2022-12-16T15:49:02;-2.10;96.70
5164;DHT22;2601;50.224;10.126;2022-12-16T15:51:48;-2.10;96.70
5164;DHT22;2601;50.224;10.126;2022-12-16T15:54:47;-2.10;96.70
5164;DHT22;2601;50.224;10.126;2022-12-16T15:57:34;-2.20;97.00
5164;DHT22;2601;50.224;10.126;2022-12-16T16:00:26;-2.20;96.70
5164;DHT22;2601;50.224;10.126;2022-12-16T16:03:24;-2.30;97.10
5164;DHT22;2601;50.224;10.126;2022-12-16T16:06:19;-2.20;96.80
5164;DHT22;2601;50.224;10.126;2022-12-16T16:09:12;-2.30;96.80
5164;DHT22;2601;50.224;10.126;2022-12-16T16:11:56;-2.20;96.90
5164;DHT22;2601;50.224;10.126;2022-12-16T16:14:40;-2.30;97.00
5164;DHT22;2601;50.224;10.126;2022-12-16T16:17:25;-2.40;97.00
5164;DHT22;2601;50.224;10.126;2022-12-16T16:20:14;-2.50;96.90
5164;DHT22;2601;50.224;10.126;2022-12-16T16:22:59;-2.60;97.50
5164;DHT22;2601;50.224;10.126;2022-12-16T16:25:45;-2.60;97.80
5164;DHT22;2601;50.224;10.126;2022-12-16T16:28:30;-2.50;97.30
5164;DHT22;2601;50.224;10.126;2022-12-16T16:31:15;-2.50;97.20
5164;DHT22;2601;50.224;10.126;2022-12-16T16:33:59;-2.60;97.50
5164;DHT22;2601;50.224;10.126;2022-12-16T16:36:43;-2.70;97.70
5164;DHT22;2601;50.224;10.126;2022-12-16T16:39:27;-2.60;97.60
5164;DHT22;2601;50.224;10.126;2022-12-16T16:42:11;-2.70;97.80
5164;DHT22;2601;50.224;10.126;2022-12-16T16:44:55;-2.70;98.00
5164;DHT22;2601;50.224;10.126;2022-12-16T16:47:40;-2.80;98.20
5164;DHT22;2601;50.224;10.126;2022-12-16T16:50:26;-2.80;98.30
5164;DHT22;2601;50.224;10.126;2022-12-16T16:53:14;-2.90;98.80
5164;DHT22;2601;50.224;10.126;2022-12-16T16:55:59;-2.90;98.90
5164;DHT22;2601;50.224;10.126;2022-12-16T16:58:44;-3.00;99.30
5164;DHT22;2601;50.224;10.126;2022-12-16T17:01:29;-3.00;99.30
5164;DHT22;2601;50.224;10.126;2022-12-16T17:04:13;-3.00;99.30
5164;DHT22;2601;50.224;10.126;2022-12-16T17:06:57;-3.00;99.40
5164;DHT22;2601;50.224;10.126;2022-12-16T17:09:42;-3.10;99.90
5164;DHT22;2601;50.224;10.126;2022-12-16T17:12:28;-3.20;99.90
5164;DHT22;2601;50.224;10.126;2022-12-16T17:15:27;-3.20;99.90
5164;DHT22;2601;50.224;10.126;2022-12-16T17:18:12;-3.40;99.90
5164;DHT22;2601;50.224;10.126;2022-12-16T17:20:56;-3.40;99.90
5164;DHT22;2601;50.224;10.126;2022-12-16T17:23:41;-3.30;99.90
5164;DHT22;2601;50.224;10.126;2022-12-16T17:26:25;-3.30;99.90
5164;DHT22;2601;50.224;10.126;2022-12-16T17:29:21;-3.30;99.90
5164;DHT22;2601;50.224;10.126;2022-12-16T17:32:06;-3.40;99.90
5164;DHT22;2601;50.224;10.126;2022-12-16T17:34:50;-3.50;99.90
5164;DHT22;2601;50.224;10.126;2022-12-16T17:37:35;-3.40;99.90
5164;DHT22;2601;50.224;10.126;2022-12-16T17:40:19;-3.50;99.90
5164;DHT22;2601;50.224;10.126;2022-12-16T17:43:03;-3.40;99.90
5164;DHT22;2601;50.224;10.126;2022-12-16T17:46:01;-3.50;99.90
5164;DHT22;2601;50.224;10.126;2022-12-16T17:48:50;-3.70;99.90
5164;DHT22;2601;50.224;10.126;2022-12-16T17:51:34;-3.70;99.90
5164;DHT22;2601;50.224;10.126;2022-12-16T17:54:19;-3.80;99.90
5164;DHT22;2601;50.224;10.126;2022-12-16T17:57:03;-4.00;99.90
5164;DHT22;2601;50.224;10.126;2022-12-16T17:59:47;-4.30;99.90
5164;DHT22;2601;50.224;10.126;2022-12-16T18:02:31;-4.30;99.90
5164;DHT22;2601;50.224;10.126;2022-12-16T18:05:15;-4.30;99.90
5164;DHT22;2601;50.224;10.126;2022-12-16T18:08:00;-4.40;99.90
5164;DHT22;2601;50.224;10.126;2022-12-16T18:10:44;-4.40;99.90
5164;DHT22;2601;50.224;10.126;2022-12-16T18:13:29;-4.40;99.90
5164;DHT22;2601;50.224;10.126;2022-12-16T18:16:13;-4.50;99.90
5164;DHT22;2601;50.224;10.126;2022-12-16T18:18:57;-4.50;99.90
5164;DHT22;2601;50.224;10.126;2022-12-16T18:21:41;-4.40;99.90
5164;DHT22;2601;50.224;10.126;2022-12-16T18:24:25;-4.60;99.90
5164;DHT22;2601;50.224;10.126;2022-12-16T18:27:09;-4.80;99.90
5164;DHT22;2601;50.224;10.126;2022-12-16T18:29:53;-4.90;99.90
5164;DHT22;2601;50.224;10.126;2022-12-16T18:32:38;-5.10;99.90
5164;DHT22;2601;50.224;10.126;2022-12-16T18:35:22;-5.10;99.90
5164;DHT22;2601;50.224;10.126;2022-12-16T18:38:06;-5.20;99.90
5164;DHT22;2601;50.224;10.126;2022-12-16T18:40:54;-5.10;99.90
5164;DHT22;2601;50.224;10.126;2022-12-16T18:43:43;-5.30;99.90
5164;DHT22;2601;50.224;10.126;2022-12-16T18:46:28;-5.50;99.90
5164;DHT22;2601;50.224;10.126;2022-12-16T18:49:12;-5.60;99.90
5164;DHT22;2601;50.224;10.126;2022-12-16T18:51:56;-5.70;99.90
5164;DHT22;2601;50.224;10.126;2022-12-16T18:54:40;-5.70;99.90
5164;DHT22;2601;50.224;10.126;2022-12-16T18:57:24;-5.80;99.90
5164;DHT22;2601;50.224;10.126;2022-12-16T19:00:09;-5.80;99.90
5164;DHT22;2601;50.224;10.126;2022-12-16T19:02:54;-5.90;99.90
5164;DHT22;2601;50.224;10.126;2022-12-16T19:05:38;-5.90;99.90
5164;DHT22;2601;50.224;10.126;2022-12-16T19:08:23;-5.90;99.90
5164;DHT22;2601;50.224;10.126;2022-12-16T19:11:08;-5.90;99.90
5164;DHT22;2601;50.224;10.126;2022-12-16T19:13:53;-6.00;99.90
5164;DHT22;2601;50.224;10.126;2022-12-16T19:16:37;-6.00;99.90
5164;DHT22;2601;50.224;10.126;2022-12-16T19:19:21;-6.10;99.90
5164;DHT22;2601;50.224;10.126;2022-12-16T19:22:05;-6.20;99.90
5164;DHT22;2601;50.224;10.126;2022-12-16T19:24:49;-6.20;99.90
5164;DHT22;2601;50.224;10.126;2022-12-16T19:27:33;-6.20;99.90
5164;DHT22;2601;50.224;10.126;2022-12-16T19:30:17;-6.30;99.90
5164;DHT22;2601;50.224;10.126;2022-12-16T19:33:02;-6.30;99.90
5164;DHT22;2601;50.224;10.126;2022-12-16T19:35:46;-6.40;99.90
5164;DHT22;2601;50.224;10.126;2022-12-16T19:38:30;-6.50;99.90
5164;DHT22;2601;50.224;10.126;2022-12-16T19:41:16;-6.50;99.90
5164;DHT22;2601;50.224;10.126;2022-12-16T19:44:01;-6.50;99.90
5164;DHT22;2601;50.224;10.126;2022-12-16T19:46:46;-6.40;99.90
5164;DHT22;2601;50.224;10.126;2022-12-16T19:49:30;-6.40;99.90
5164;DHT22;2601;50.224;10.126;2022-12-16T19:52:14;-6.40;99.90
5164;DHT22;2601;50.224;10.126;2022-12-16T19:54:59;-6.40;99.90
5164;DHT22;2601;50.224;10.126;2022-12-16T19:57:45;-6.50;99.90
5164;DHT22;2601;50.224;10.126;2022-12-16T20:00:29;-6.50;99.90
5164;DHT22;2601;50.224;10.126;2022-12-16T20:03:17;-6.50;99.90
5164;DHT22;2601;50.224;10.126;2022-12-16T20:06:04;-6.60;99.90
5164;DHT22;2601;50.224;10.126;2022-12-16T20:08:50;-6.70;99.90
5164;DHT22;2601;50.224;10.126;2022-12-16T20:11:35;-6.60;99.90
5164;DHT22;2601;50.224;10.126;2022-12-16T20:14:19;-6.70;99.90
5164;DHT22;2601;50.224;10.126;2022-12-16T20:17:03;-6.70;99.90
5164;DHT22;2601;50.224;10.126;2022-12-16T20:19:48;-6.70;99.90
5164;DHT22;2601;50.224;10.126;2022-12-16T20:22:32;-6.70;99.90
5164;DHT22;2601;50.224;10.126;2022-12-16T20:25:16;-6.70;99.90
5164;DHT22;2601;50.224;10.126;2022-12-16T20:28:00;-6.90;99.90
5164;DHT22;2601;50.224;10.126;2022-12-16T20:30:45;-7.00;99.90
5164;DHT22;2601;50.224;10.126;2022-12-16T20:33:29;-7.00;99.90
5164;DHT22;2601;50.224;10.126;2022-12-16T20:36:14;-7.10;99.90
5164;DHT22;2601;50.224;10.126;2022-12-16T20:38:58;-7.00;99.90
5164;DHT22;2601;50.224;10.126;2022-12-16T20:41:42;-7.00;99.90
5164;DHT22;2601;50.224;10.126;2022-12-16T20:44:26;-7.10;99.90
